Time;durP1;ratioP1;P1;durP2;ratioP2;P2;SDS_P1;SDS_P2;PMS_P1;PMS_P2;Temp;Humidity;BMP_temperature;BMP_pressure;BME280_temperature;BME280_humidity;BME280_pressure;Samples;Min_cycle;Max_cycle;Signal;HPM_P1;HPM_P2
2022/03/27 00:00:24;;;;;;;2.43;1.70;;;11.00;41.10;;;;;;5057702;28;20216;-48
2022/03/27 00:02:53;;;;;;;3.43;1.93;;;11.00;41.20;;;;;;5056222;28;20228;-44
2022/03/27 00:05:20;;;;;;;2.80;1.80;;;11.00;41.20;;;;;;5069347;28;20201;-46
2022/03/27 00:07:48;;;;;;;2.00;1.70;;;11.00;41.20;;;;;;5069035;28;20222;-46
2022/03/27 00:10:15;;;;;;;2.97;1.90;;;11.00;41.10;;;;;;5067161;28;20208;-42
2022/03/27 00:12:42;;;;;;;12.10;6.47;;;11.00;41.10;;;;;;5068569;28;20634;-44
2022/03/27 00:15:10;;;;;;;11.53;5.53;;;11.00;41.20;;;;;;5069913;28;20711;-46
2022/03/27 00:17:37;;;;;;;21.07;9.47;;;11.00;41.30;;;;;;5066844;28;20670;-52
2022/03/27 00:20:08;;;;;;;16.60;7.73;;;10.90;41.30;;;;;;5069219;28;20204;-49
2022/03/27 00:22:36;;;;;;;13.33;6.17;;;11.00;41.40;;;;;;5071668;28;20225;-44
2022/03/27 00:25:04;;;;;;;8.40;4.17;;;10.90;41.40;;;;;;5073605;28;20198;-46
2022/03/27 00:27:31;;;;;;;6.10;3.50;;;10.90;41.40;;;;;;5066925;28;20196;-44
2022/03/27 00:29:59;;;;;;;5.73;3.13;;;10.90;41.40;;;;;;5062289;28;20204;-44
2022/03/27 00:32:26;;;;;;;4.37;2.53;;;10.90;41.40;;;;;;5064004;28;20205;-49
2022/03/27 00:34:53;;;;;;;2.97;2.20;;;10.80;41.40;;;;;;5067773;28;20198;-45
2022/03/27 00:37:22;;;;;;;3.17;2.23;;;10.80;41.50;;;;;;5068499;28;20659;-49
2022/03/27 00:39:49;;;;;;;2.50;1.70;;;10.80;41.60;;;;;;5069628;28;20194;-44
2022/03/27 00:42:19;;;;;;;3.00;1.90;;;10.70;41.50;;;;;;5070264;28;20275;-45
2022/03/27 00:44:46;;;;;;;4.27;1.93;;;10.70;41.60;;;;;;5065662;28;20190;-43
2022/03/27 00:47:13;;;;;;;5.53;2.20;;;10.60;41.50;;;;;;5067932;28;20187;-49
2022/03/27 00:49:40;;;;;;;5.13;2.20;;;10.60;41.60;;;;;;5065767;28;20199;-44
2022/03/27 00:52:08;;;;;;;3.57;1.73;;;10.60;41.70;;;;;;5067636;28;20264;-46
2022/03/27 00:54:36;;;;;;;4.53;1.70;;;10.60;41.80;;;;;;5077333;28;20227;-48
2022/03/27 00:57:04;;;;;;;2.43;1.40;;;10.50;41.70;;;;;;5076041;28;20193;-47
2022/03/27 00:59:31;;;;;;;3.30;1.50;;;10.50;41.70;;;;;;5070117;28;20199;-48
2022/03/27 01:01:59;;;;;;;2.53;1.40;;;10.50;41.80;;;;;;5075990;28;20677;-49
2022/03/27 01:04:26;;;;;;;3.90;2.03;;;10.50;41.90;;;;;;5067551;28;20254;-45
2022/03/27 01:06:53;;;;;;;3.30;2.10;;;10.40;41.90;;;;;;5059038;28;20197;-43
2022/03/27 01:09:38;;;;;;;4.27;2.03;;;10.50;42.00;;;;;;5067850;28;20682;-43
2022/03/27 01:12:20;;;;;;;4.03;2.30;;;10.40;42.10;;;;;;5070328;28;20188;-44
2022/03/27 01:14:48;;;;;;;2.47;1.70;;;10.30;42.10;;;;;;5070903;28;20245;-43
2022/03/27 01:17:17;;;;;;;4.17;2.10;;;10.30;42.10;;;;;;5064793;28;20686;-44
2022/03/27 01:19:45;;;;;;;3.47;1.77;;;10.30;42.30;;;;;;5070538;28;20216;-46
2022/03/27 01:22:15;;;;;;;2.80;1.90;;;10.20;42.40;;;;;;5069953;28;20329;-46
2022/03/27 01:24:42;;;;;;;3.57;2.00;;;10.20;42.40;;;;;;5060619;28;20195;-44
2022/03/27 01:27:09;;;;;;;3.37;1.70;;;10.20;42.50;;;;;;5072220;28;21016;-44
2022/03/27 01:29:36;;;;;;;4.20;1.83;;;10.20;42.50;;;;;;5073598;28;20545;-44
2022/03/27 01:32:05;;;;;;;2.53;1.47;;;10.20;42.60;;;;;;5070925;28;20193;-45
2022/03/27 01:34:33;;;;;;;2.43;1.57;;;10.20;42.70;;;;;;5069195;28;20194;-47
2022/03/27 01:37:05;;;;;;;2.30;1.40;;;10.20;42.80;;;;;;5063672;28;20197;-47
2022/03/27 01:39:33;;;;;;;2.27;1.40;;;10.10;42.80;;;;;;5066190;28;20264;-47
2022/03/27 01:42:00;;;;;;;1.97;1.43;;;10.10;42.80;;;;;;5076842;28;20189;-46
2022/03/27 01:44:28;;;;;;;1.70;1.30;;;10.10;42.80;;;;;;5064958;28;20234;-46
2022/03/27 01:46:57;;;;;;;1.30;1.20;;;10.10;42.90;;;;;;5071698;28;20742;-44
2022/03/27 01:49:24;;;;;;;1.57;1.40;;;10.10;42.90;;;;;;5070585;28;20226;-47
2022/03/27 01:51:51;;;;;;;3.50;1.30;;;10.00;42.80;;;;;;5067200;28;20182;-44
2022/03/27 01:54:19;;;;;;;1.93;1.10;;;10.00;42.80;;;;;;5073542;28;20200;-45
2022/03/27 01:56:48;;;;;;;4.57;1.77;;;10.00;42.80;;;;;;5072748;28;20286;-48
2022/03/27 01:59:16;;;;;;;6.70;1.70;;;9.90;43.80;;;;;;5059276;28;20209;-44
2022/03/27 02:01:43;;;;;;;2.67;1.53;;;9.90;43.90;;;;;;5073694;28;20199;-47
2022/03/27 02:04:11;;;;;;;2.43;1.60;;;10.00;43.00;;;;;;5059201;28;20212;-48
2022/03/27 02:06:39;;;;;;;2.87;1.20;;;9.90;43.80;;;;;;5070637;28;20224;-44
2022/03/27 02:09:07;;;;;;;1.33;1.20;;;10.00;42.90;;;;;;5070420;28;20193;-48
2022/03/27 02:11:34;;;;;;;1.57;1.20;;;10.00;42.90;;;;;;5057434;28;20202;-46
2022/03/27 02:14:03;;;;;;;2.87;1.80;;;10.00;42.90;;;;;;5058685;28;20313;-48
2022/03/27 02:16:30;;;;;;;3.07;1.40;;;10.00;42.90;;;;;;5066265;28;20201;-46
2022/03/27 02:18:58;;;;;;;1.53;1.30;;;10.00;42.90;;;;;;5059429;28;20667;-44
2022/03/27 02:21:25;;;;;;;1.43;1.33;;;10.00;42.80;;;;;;5068011;28;20199;-45
2022/03/27 02:23:53;;;;;;;1.50;1.20;;;10.10;42.90;;;;;;5064698;28;20217;-47
2022/03/27 02:26:20;;;;;;;1.87;1.50;;;10.10;42.90;;;;;;5065186;28;20197;-48
2022/03/27 02:28:47;;;;;;;1.87;1.23;;;10.10;42.90;;;;;;5059832;28;20680;-47
2022/03/27 02:31:15;;;;;;;2.20;1.37;;;10.10;42.90;;;;;;5065223;28;20205;-45
2022/03/27 02:33:42;;;;;;;2.37;1.47;;;10.00;43.00;;;;;;5059337;28;20197;-46
2022/03/27 02:36:09;;;;;;;1.40;1.30;;;10.00;43.10;;;;;;5062207;28;20253;-52
2022/03/27 02:38:37;;;;;;;1.93;1.57;;;10.00;43.10;;;;;;5069576;28;20680;-44
2022/03/27 02:41:05;;;;;;;2.60;1.30;;;9.90;44.00;;;;;;5062664;28;20205;-47
2022/03/27 02:43:32;;;;;;;2.90;1.47;;;9.90;44.10;;;;;;5057475;28;20596;-46
2022/03/27 02:45:59;;;;;;;1.50;1.10;;;9.80;44.20;;;;;;5059001;28;20201;-43
2022/03/27 02:48:28;;;;;;;1.97;1.43;;;9.80;44.20;;;;;;5063853;28;20643;-49
2022/03/27 02:50:55;;;;;;;1.37;1.10;;;9.70;44.20;;;;;;5063482;28;20196;-50
2022/03/27 02:53:23;;;;;;;2.30;1.20;;;9.70;44.30;;;;;;5069823;28;20211;-49
2022/03/27 02:55:50;;;;;;;2.13;1.30;;;9.70;44.30;;;;;;5060303;28;20555;-49
2022/03/27 02:58:17;;;;;;;0.90;0.87;;;9.70;44.20;;;;;;5063632;28;20209;-52
2022/03/27 03:00:45;;;;;;;2.10;1.10;;;9.70;44.20;;;;;;5068242;28;20264;-51
2022/03/27 03:03:13;;;;;;;1.30;1.20;;;9.70;44.30;;;;;;5077316;28;20192;-49
2022/03/27 03:05:43;;;;;;;2.40;1.40;;;9.70;44.20;;;;;;5071070;28;20188;-51
2022/03/27 03:08:12;;;;;;;2.20;1.70;;;9.70;44.20;;;;;;5075335;28;20182;-51
2022/03/27 03:10:40;;;;;;;4.83;1.60;;;9.70;44.20;;;;;;5072125;28;20223;-47
2022/03/27 03:13:09;;;;;;;4.53;2.30;;;9.70;44.20;;;;;;5069301;28;20557;-46
2022/03/27 03:15:37;;;;;;;6.10;2.40;;;9.70;44.20;;;;;;5059687;28;20291;-46
2022/03/27 03:18:05;;;;;;;3.93;1.87;;;9.60;44.10;;;;;;5068887;28;20597;-48
2022/03/27 03:20:33;;;;;;;3.67;1.87;;;9.60;44.20;;;;;;5070064;28;20285;-47
2022/03/27 03:23:03;;;;;;;1.90;1.43;;;9.50;44.00;;;;;;5065274;28;20197;-49
2022/03/27 03:25:31;;;;;;;3.67;1.80;;;9.50;44.10;;;;;;5067874;28;20202;-48
2022/03/27 03:27:58;;;;;;;4.83;2.27;;;9.40;44.00;;;;;;5065465;28;20638;-44
2022/03/27 03:30:25;;;;;;;3.00;1.97;;;9.40;44.10;;;;;;5070274;28;20196;-46
2022/03/27 03:32:52;;;;;;;4.27;2.10;;;9.30;44.10;;;;;;5065382;28;20189;-47
2022/03/27 03:35:19;;;;;;;3.63;2.10;;;9.30;44.10;;;;;;5070295;28;20194;-51
2022/03/27 03:37:47;;;;;;;2.97;1.90;;;9.40;44.20;;;;;;5066610;28;20202;-46
2022/03/27 03:40:15;;;;;;;6.30;2.20;;;9.40;44.10;;;;;;5074757;28;20196;-46
2022/03/27 03:42:43;;;;;;;2.87;2.07;;;9.40;44.00;;;;;;5068255;28;20194;-45
2022/03/27 03:45:10;;;;;;;4.67;2.40;;;9.40;44.00;;;;;;5063915;28;20205;-48
2022/03/27 03:47:37;;;;;;;3.03;1.97;;;9.30;44.00;;;;;;5066634;28;20552;-45
2022/03/27 03:50:05;;;;;;;6.57;2.93;;;9.20;44.20;;;;;;5072708;28;20187;-44
2022/03/27 03:52:33;;;;;;;6.27;2.97;;;9.20;44.20;;;;;;5062561;28;20294;-44
2022/03/27 03:55:00;;;;;;;4.07;2.67;;;9.20;44.20;;;;;;5070395;28;20251;-47
2022/03/27 03:57:28;;;;;;;5.73;2.83;;;9.20;44.20;;;;;;5072648;28;20225;-47
2022/03/27 03:59:56;;;;;;;5.77;2.70;;;9.30;44.20;;;;;;5068718;28;20680;-46
2022/03/27 04:02:23;;;;;;;7.37;3.43;;;9.30;44.10;;;;;;5070009;28;20217;-45
2022/03/27 04:04:50;;;;;;;5.53;2.80;;;9.30;44.10;;;;;;5069357;28;20194;-50
2022/03/27 04:07:17;;;;;;;5.53;2.90;;;9.30;44.10;;;;;;5069404;28;20202;-47
2022/03/27 04:09:44;;;;;;;6.00;2.50;;;9.30;44.00;;;;;;5067289;28;20664;-46
2022/03/27 04:12:12;;;;;;;7.87;3.37;;;9.30;44.00;;;;;;5062900;28;20199;-49
2022/03/27 04:14:41;;;;;;;4.10;2.90;;;9.30;44.00;;;;;;5067362;28;20338;-45
2022/03/27 04:17:08;;;;;;;7.47;2.90;;;9.30;44.00;;;;;;5067053;28;20243;-48
2022/03/27 04:19:35;;;;;;;6.17;3.37;;;9.30;44.10;;;;;;5069392;28;20263;-47
2022/03/27 04:22:02;;;;;;;5.97;2.60;;;9.20;44.20;;;;;;5068816;28;20200;-47
2022/03/27 04:24:29;;;;;;;4.60;2.50;;;9.30;44.20;;;;;;5069783;28;20257;-49
2022/03/27 04:26:56;;;;;;;4.77;2.37;;;9.20;44.20;;;;;;5071429;28;20533;-44
2022/03/27 04:29:23;;;;;;;5.73;2.47;;;9.20;44.20;;;;;;5065290;28;20201;-46
2022/03/27 04:31:52;;;;;;;6.57;2.63;;;9.20;44.20;;;;;;5069210;28;20200;-46
2022/03/27 04:34:19;;;;;;;3.33;2.27;;;9.20;44.30;;;;;;5070572;28;20203;-49
2022/03/27 04:36:46;;;;;;;3.00;2.10;;;9.20;44.30;;;;;;5069192;28;20230;-49
2022/03/27 04:39:14;;;;;;;5.17;2.30;;;9.20;44.30;;;;;;5066873;28;20216;-48
2022/03/27 04:41:41;;;;;;;4.40;2.00;;;9.10;44.30;;;;;;5070853;28;20566;-47
2022/03/27 04:44:09;;;;;;;2.90;1.80;;;9.10;44.30;;;;;;5056340;28;20200;-45
2022/03/27 04:46:36;;;;;;;2.10;1.77;;;9.10;44.30;;;;;;5069081;28;20220;-44
2022/03/27 04:49:05;;;;;;;4.40;2.10;;;9.10;44.30;;;;;;5064180;28;20201;-50
2022/03/27 04:51:32;;;;;;;3.37;2.20;;;9.10;44.40;;;;;;5067184;28;20193;-43
2022/03/27 04:54:00;;;;;;;3.60;2.30;;;9.10;44.50;;;;;;5062474;28;20614;-48
2022/03/27 04:56:27;;;;;;;5.13;2.43;;;9.10;44.50;;;;;;5070632;28;20542;-47
2022/03/27 04:58:54;;;;;;;3.87;1.93;;;9.10;44.50;;;;;;5078223;28;20653;-45
2022/03/27 05:01:21;;;;;;;3.70;2.30;;;9.10;44.60;;;;;;5072745;28;20198;-46
2022/03/27 05:03:48;;;;;;;2.10;1.80;;;9.20;44.60;;;;;;5072971;28;20225;-45
2022/03/27 05:06:17;;;;;;;3.77;2.20;;;9.30;44.60;;;;;;5069077;28;20202;-47
2022/03/27 05:08:45;;;;;;;3.67;2.10;;;9.30;44.50;;;;;;5064040;28;20221;-46
2022/03/27 05:11:12;;;;;;;2.60;1.90;;;9.40;44.50;;;;;;5072706;28;20653;-47
2022/03/27 05:13:40;;;;;;;3.17;2.03;;;9.40;44.40;;;;;;5072359;28;20233;-44
2022/03/27 05:16:07;;;;;;;2.80;1.73;;;9.50;44.40;;;;;;5069651;28;20199;-45
2022/03/27 05:18:34;;;;;;;3.30;1.70;;;9.60;44.40;;;;;;5067300;28;20662;-49
2022/03/27 05:21:01;;;;;;;2.60;1.70;;;9.60;44.40;;;;;;5075423;28;20197;-47
2022/03/27 05:23:30;;;;;;;4.17;2.00;;;9.60;44.50;;;;;;5069020;28;20213;-47
2022/03/27 05:25:57;;;;;;;1.60;1.40;;;9.60;44.50;;;;;;5065907;28;20188;-50
2022/03/27 05:28:24;;;;;;;4.17;1.83;;;9.60;44.40;;;;;;5075350;28;20684;-46
2022/03/27 05:30:52;;;;;;;2.23;1.50;;;9.60;44.40;;;;;;5072758;28;20207;-46
2022/03/27 05:33:19;;;;;;;4.67;1.93;;;9.70;44.50;;;;;;5070355;28;20211;-49
2022/03/27 05:35:46;;;;;;;1.60;1.50;;;9.70;44.40;;;;;;5068619;28;20291;-43
2022/03/27 05:38:14;;;;;;;2.10;1.63;;;9.70;44.30;;;;;;5076931;28;20205;-45
2022/03/27 05:40:42;;;;;;;2.93;1.87;;;9.70;44.20;;;;;;5065329;28;20709;-43
2022/03/27 05:43:09;;;;;;;1.50;1.30;;;9.70;44.20;;;;;;5075100;28;20206;-44
2022/03/27 05:45:36;;;;;;;3.20;1.57;;;9.80;44.20;;;;;;5067351;28;20201;-43
2022/03/27 05:48:04;;;;;;;3.20;1.70;;;9.80;44.20;;;;;;5070124;28;20289;-46
2022/03/27 05:50:31;;;;;;;1.80;1.50;;;9.80;44.20;;;;;;5066232;28;20194;-43
2022/03/27 05:52:58;;;;;;;2.80;1.90;;;9.80;44.20;;;;;;5070971;28;20201;-46
2022/03/27 05:55:26;;;;;;;3.30;1.97;;;9.80;44.00;;;;;;5076606;28;20233;-44
2022/03/27 05:57:54;;;;;;;4.20;2.03;;;9.80;44.00;;;;;;5071871;28;20203;-43
2022/03/27 06:00:22;;;;;;;2.10;1.57;;;9.80;44.00;;;;;;5080581;28;20202;-45
2022/03/27 06:02:50;;;;;;;3.00;1.90;;;9.80;44.00;;;;;;5058596;28;20257;-43
2022/03/27 06:05:22;;;;;;;2.43;2.23;;;9.80;43.90;;;;;;5069616;28;20204;-46
2022/03/27 06:07:52;;;;;;;3.77;2.47;;;9.80;43.90;;;;;;5066796;28;20258;-49
2022/03/27 06:10:23;;;;;;;2.63;1.70;;;9.80;43.80;;;;;;5073256;28;20190;-45
2022/03/27 06:12:50;;;;;;;2.73;1.90;;;9.80;43.80;;;;;;5064103;28;20208;-44
2022/03/27 06:15:19;;;;;;;3.80;2.00;;;9.80;43.80;;;;;;5070602;28;20251;-44
2022/03/27 06:17:48;;;;;;;2.67;1.93;;;9.90;43.90;;;;;;5059641;28;20223;-52
2022/03/27 06:20:16;;;;;;;2.00;1.50;;;9.90;43.70;;;;;;5061393;28;20213;-54
2022/03/27 06:22:44;;;;;;;2.80;1.80;;;9.90;43.70;;;;;;5063270;28;20195;-53
2022/03/27 06:25:13;;;;;;;1.67;1.53;;;10.10;42.80;;;;;;5068248;28;20199;-51
2022/03/27 06:27:40;;;;;;;2.70;1.50;;;10.20;42.60;;;;;;5073479;28;20194;-49
2022/03/27 06:30:10;;;;;;;2.80;1.77;;;10.20;42.40;;;;;;5072285;28;20190;-50
2022/03/27 06:32:38;;;;;;;2.57;1.60;;;10.30;42.30;;;;;;5066105;28;20627;-48
2022/03/27 06:35:07;;;;;;;3.73;1.73;;;10.30;42.30;;;;;;5070210;28;20186;-50
2022/03/27 06:37:34;;;;;;;5.23;1.93;;;10.40;42.30;;;;;;5068407;28;20206;-48
2022/03/27 06:40:02;;;;;;;1.97;1.77;;;10.50;42.30;;;;;;5067163;28;20217;-47
2022/03/27 06:42:29;;;;;;;3.63;1.73;;;10.50;42.20;;;;;;5069259;28;20196;-49
2022/03/27 06:44:56;;;;;;;3.43;1.87;;;10.50;42.20;;;;;;5067700;28;20201;-49
2022/03/27 06:47:26;;;;;;;5.03;1.83;;;10.60;42.20;;;;;;5065282;28;20565;-48
2022/03/27 06:49:56;;;;;;;2.43;1.50;;;10.70;42.20;;;;;;5066815;28;20279;-48
2022/03/27 06:52:24;;;;;;;2.00;1.30;;;10.80;42.10;;;;;;5066759;28;20286;-46
2022/03/27 06:54:52;;;;;;;2.33;1.40;;;10.90;41.90;;;;;;5077417;28;20197;-50
2022/03/27 06:57:19;;;;;;;5.13;1.70;;;10.90;41.70;;;;;;5075463;28;20211;-48
2022/03/27 07:05:17;;;;;;;2.47;1.50;;;11.20;41.30;;;;;;5070102;28;20278;-47
2022/03/27 07:07:44;;;;;;;2.83;1.33;;;11.20;41.20;;;;;;5059986;28;20197;-52
2022/03/27 07:10:12;;;;;;;5.63;2.10;;;11.30;40.90;;;;;;5066722;28;20213;-47
2022/03/27 07:12:39;;;;;;;7.17;2.67;;;11.30;40.40;;;;;;5061717;28;20239;-49
2022/03/27 07:15:08;;;;;;;8.93;2.43;;;11.30;40.30;;;;;;5062512;28;20223;-47
2022/03/27 07:17:44;;;;;;;1.97;1.73;;;11.30;40.30;;;;;;5067272;28;20197;-46
2022/03/27 07:20:12;;;;;;;2.13;1.47;;;11.40;40.40;;;;;;5063955;28;20203;-50
2022/03/27 07:22:41;;;;;;;2.40;1.60;;;11.40;40.40;;;;;;5063200;28;20686;-47
2022/03/27 07:25:09;;;;;;;2.03;1.50;;;11.50;40.40;;;;;;5064339;28;20202;-48
2022/03/27 07:27:38;;;;;;;2.33;1.40;;;11.50;40.20;;;;;;5073370;28;20202;-50
2022/03/27 07:30:06;;;;;;;2.43;1.80;;;11.50;39.80;;;;;;5063226;28;20259;-52
2022/03/27 07:32:34;;;;;;;2.50;1.67;;;11.60;39.50;;;;;;5070699;28;20628;-46
2022/03/27 07:35:01;;;;;;;3.30;1.70;;;11.60;39.30;;;;;;5072322;28;20604;-50
2022/03/27 07:37:32;;;;;;;4.10;2.13;;;11.60;39.30;;;;;;5063961;28;20215;-52
2022/03/27 07:40:03;;;;;;;5.03;2.50;;;11.70;38.90;;;;;;5062555;28;20211;-50
2022/03/27 07:42:32;;;;;;;5.33;2.90;;;11.80;38.80;;;;;;5067901;28;20206;-48
2022/03/27 07:44:59;;;;;;;4.83;2.23;;;11.80;38.80;;;;;;5060691;28;20736;-46
2022/03/27 07:47:27;;;;;;;7.30;3.30;;;11.90;38.80;;;;;;5054307;28;20210;-48
2022/03/27 07:49:54;;;;;;;10.33;3.87;;;11.90;38.20;;;;;;5063858;28;20200;-47
2022/03/27 07:52:22;;;;;;;9.23;4.17;;;11.90;37.70;;;;;;5055449;28;20197;-44
2022/03/27 07:54:50;;;;;;;7.10;3.43;;;11.90;37.90;;;;;;5066575;28;20200;-48
2022/03/27 07:57:20;;;;;;;5.97;2.80;;;12.00;38.20;;;;;;5069325;28;20193;-45
2022/03/27 07:59:47;;;;;;;2.83;1.97;;;12.00;37.90;;;;;;5069920;28;20201;-45
2022/03/27 08:02:14;;;;;;;4.60;1.90;;;12.10;37.40;;;;;;5068868;28;20210;-48
2022/03/27 08:04:42;;;;;;;2.43;1.53;;;12.20;36.90;;;;;;5074824;28;20191;-45
2022/03/27 08:07:09;;;;;;;3.27;1.70;;;12.20;36.80;;;;;;5071900;28;20200;-47
2022/03/27 08:09:36;;;;;;;3.80;1.47;;;12.40;36.90;;;;;;5060328;28;20197;-46
2022/03/27 08:12:07;;;;;;;2.77;1.50;;;12.50;36.40;;;;;;5056796;28;20193;-45
2022/03/27 08:14:35;;;;;;;1.87;1.33;;;12.80;36.30;;;;;;5065020;28;20232;-44
2022/03/27 08:17:03;;;;;;;1.53;1.03;;;13.00;36.20;;;;;;5060265;28;20228;-47
2022/03/27 08:19:30;;;;;;;1.33;1.23;;;13.30;36.00;;;;;;5061184;28;20616;-48
2022/03/27 08:21:58;;;;;;;1.93;1.30;;;13.80;35.90;;;;;;5063102;28;20633;-45
2022/03/27 08:24:25;;;;;;;2.43;1.30;;;14.50;35.30;;;;;;5057227;28;20311;-49
2022/03/27 08:26:58;;;;;;;1.70;1.30;;;15.10;34.60;;;;;;5062746;28;20254;-47
2022/03/27 08:29:26;;;;;;;2.33;1.57;;;15.60;33.10;;;;;;5062934;28;20600;-44
2022/03/27 08:31:55;;;;;;;1.87;1.20;;;15.90;32.70;;;;;;5065897;28;20704;-50
2022/03/27 08:34:24;;;;;;;3.90;2.20;;;16.00;32.10;;;;;;5064365;28;20201;-49
2022/03/27 08:36:52;;;;;;;3.00;1.60;;;16.00;31.90;;;;;;5067900;28;20196;-51
2022/03/27 08:39:19;;;;;;;2.03;1.40;;;16.00;31.50;;;;;;5072413;28;20229;-46
2022/03/27 08:41:48;;;;;;;2.77;1.47;;;16.30;31.40;;;;;;5067827;28;20191;-48
2022/03/27 08:44:18;;;;;;;1.50;1.00;;;16.40;30.90;;;;;;5066924;28;20360;-46
2022/03/27 08:46:48;;;;;;;2.17;1.10;;;16.50;30.70;;;;;;5070746;28;20204;-44
2022/03/27 08:49:30;;;;;;;4.87;1.50;;;16.90;30.00;;;;;;5064984;28;20238;-45
2022/03/27 08:52:04;;;;;;;1.87;1.30;;;17.00;28.60;;;;;;5068565;28;20282;-47
2022/03/27 08:54:36;;;;;;;1.73;1.30;;;17.00;28.60;;;;;;5072963;28;20203;-45
2022/03/27 08:57:09;;;;;;;2.00;1.10;;;17.10;28.40;;;;;;5072763;28;20200;-48
2022/03/27 08:59:38;;;;;;;3.53;1.50;;;17.30;28.50;;;;;;5060617;28;20224;-44
2022/03/27 09:02:06;;;;;;;1.80;1.20;;;17.70;27.50;;;;;;5069490;28;20249;-48
2022/03/27 09:04:39;;;;;;;1.40;1.10;;;18.00;27.10;;;;;;5063824;28;20223;-48
2022/03/27 09:07:06;;;;;;;2.60;1.50;;;18.10;26.90;;;;;;5070967;28;20204;-45
2022/03/27 09:09:35;;;;;;;2.20;1.27;;;17.90;27.10;;;;;;5073019;28;20201;-46
2022/03/27 09:12:04;;;;;;;2.57;1.33;;;17.70;26.90;;;;;;5069734;28;20197;-49
2022/03/27 09:14:33;;;;;;;1.17;0.80;;;17.60;26.70;;;;;;5067190;28;20232;-44
2022/03/27 09:17:05;;;;;;;1.20;0.90;;;17.40;26.70;;;;;;5066268;28;20242;-49
2022/03/27 09:19:36;;;;;;;1.23;1.13;;;17.20;26.90;;;;;;5072220;28;20283;-46
2022/03/27 09:22:14;;;;;;;1.30;1.20;;;16.90;27.00;;;;;;5065978;28;20270;-51
2022/03/27 09:24:42;;;;;;;1.40;1.00;;;16.70;27.00;;;;;;5071724;28;20201;-50
2022/03/27 09:27:09;;;;;;;1.17;1.00;;;16.50;27.20;;;;;;5066903;28;20682;-48
2022/03/27 09:30:03;;;;;;;0.83;0.73;;;16.30;26.90;;;;;;5067382;28;20262;-47
2022/03/27 09:32:31;;;;;;;3.13;0.90;;;16.00;27.10;;;;;;5060519;28;20189;-48
2022/03/27 09:35:03;;;;;;;0.83;0.80;;;15.80;27.10;;;;;;5061073;28;20213;-51
2022/03/27 09:37:31;;;;;;;1.20;1.10;;;15.70;27.60;;;;;;5071631;28;20193;-48
2022/03/27 09:39:59;;;;;;;1.67;0.90;;;15.60;27.40;;;;;;5066844;28;20200;-48
2022/03/27 09:42:27;;;;;;;1.10;0.80;;;15.40;27.60;;;;;;5065493;28;20200;-44
2022/03/27 09:45:17;;;;;;;2.10;1.03;;;15.40;27.80;;;;;;5067653;28;20201;-51
2022/03/27 09:47:46;;;;;;;1.80;0.97;;;15.20;27.70;;;;;;5070603;28;20283;-51
2022/03/27 09:50:34;;;;;;;2.07;1.00;;;15.10;27.70;;;;;;5065164;28;20599;-52
2022/03/27 09:53:22;;;;;;;1.00;0.90;;;14.90;28.00;;;;;;5065075;28;20200;-50
2022/03/27 09:56:07;;;;;;;1.83;0.80;;;14.80;28.30;;;;;;5068948;28;20237;-47
2022/03/27 09:58:35;;;;;;;1.47;1.17;;;14.70;28.50;;;;;;5070626;28;20655;-50
2022/03/27 10:01:11;;;;;;;1.30;1.20;;;14.60;28.50;;;;;;5069354;28;20284;-50
2022/03/27 10:03:38;;;;;;;1.63;1.00;;;14.40;28.70;;;;;;5071863;28;20291;-49
2022/03/27 10:06:27;;;;;;;0.93;0.93;;;14.30;28.70;;;;;;5071652;28;20591;-46
2022/03/27 10:08:54;;;;;;;2.20;0.97;;;14.20;28.90;;;;;;5070914;28;20264;-48
2022/03/27 10:11:22;;;;;;;2.53;1.20;;;14.20;29.10;;;;;;5067589;28;20567;-49
2022/03/27 10:13:52;;;;;;;2.40;1.13;;;14.10;28.90;;;;;;5068386;28;20284;-46
2022/03/27 10:16:23;;;;;;;1.50;0.90;;;14.00;28.90;;;;;;5067035;28;20207;-49
2022/03/27 10:18:54;;;;;;;4.87;1.10;;;14.00;29.10;;;;;;5071422;28;20301;-46
2022/03/27 10:21:25;;;;;;;4.03;1.40;;;13.90;29.20;;;;;;5070878;28;20215;-45
2022/03/27 10:24:01;;;;;;;1.97;1.10;;;13.90;29.10;;;;;;5071477;28;20227;-50
2022/03/27 10:26:30;;;;;;;1.37;1.10;;;13.90;29.20;;;;;;5071285;28;20202;-44
2022/03/27 10:28:59;;;;;;;1.97;1.20;;;13.80;29.10;;;;;;5071425;28;20199;-44
2022/03/27 10:31:27;;;;;;;1.67;1.20;;;13.80;29.10;;;;;;5069277;28;20563;-43
2022/03/27 10:33:55;;;;;;;3.30;1.23;;;13.80;29.20;;;;;;5066720;28;20259;-44
2022/03/27 10:36:34;;;;;;;2.13;1.20;;;13.80;29.20;;;;;;5071040;28;20650;-44
2022/03/27 10:39:10;;;;;;;1.40;1.10;;;13.80;29.30;;;;;;5052620;28;20233;-46
2022/03/27 10:41:43;;;;;;;1.70;1.10;;;13.80;29.30;;;;;;5070586;28;20211;-44
2022/03/27 10:44:21;;;;;;;2.70;1.50;;;13.80;29.40;;;;;;5069414;28;20227;-48
2022/03/27 10:47:12;;;;;;;3.00;1.17;;;13.80;29.30;;;;;;5055939;28;20198;-43
2022/03/27 10:49:39;;;;;;;1.47;1.20;;;13.80;29.30;;;;;;5064111;28;20198;-46
2022/03/27 10:52:09;;;;;;;1.60;1.23;;;13.80;29.40;;;;;;5063718;28;20186;-45
2022/03/27 10:54:59;;;;;;;3.10;1.60;;;14.00;29.50;;;;;;5069404;28;20199;-45
2022/03/27 10:57:31;;;;;;;2.70;1.20;;;14.10;29.30;;;;;;5069994;28;20195;-46
2022/03/27 10:59:58;;;;;;;3.40;1.20;;;14.30;29.20;;;;;;5071203;28;20212;-47
2022/03/27 11:02:45;;;;;;;1.70;1.10;;;14.60;29.20;;;;;;5069080;28;20211;-47
2022/03/27 11:05:54;;;;;;;0.93;0.93;;;14.90;29.10;;;;;;5070680;28;20282;-49
2022/03/27 11:08:47;;;;;;;1.40;1.20;;;15.20;28.80;;;;;;5056178;28;20679;-47
2022/03/27 11:12:02;;;;;;;1.23;0.93;;;15.30;28.10;;;;;;5055704;28;20204;-45
2022/03/27 11:15:00;;;;;;;2.53;1.10;;;15.20;28.20;;;;;;5060423;28;20233;-46
2022/03/27 11:17:45;;;;;;;1.47;1.10;;;15.00;28.20;;;;;;5067175;28;20202;-46
2022/03/27 11:20:55;;;;;;;3.40;1.50;;;14.90;28.00;;;;;;5068040;28;20207;-47
2022/03/27 11:23:31;;;;;;;5.10;1.97;;;14.70;28.10;;;;;;5067941;28;20248;-48
2022/03/27 11:26:01;;;;;;;2.30;1.10;;;14.80;28.10;;;;;;5069215;28;20218;-49
2022/03/27 11:28:45;;;;;;;1.87;1.33;;;14.90;28.20;;;;;;5068483;28;20680;-45
2022/03/27 11:31:17;;;;;;;2.77;1.30;;;15.10;28.40;;;;;;5066851;28;20752;-44
2022/03/27 11:34:05;;;;;;;2.77;1.60;;;15.40;28.30;;;;;;5061219;28;20214;-45
2022/03/27 11:36:33;;;;;;;2.67;1.13;;;15.60;28.00;;;;;;5068824;28;20639;-47
2022/03/27 11:39:06;;;;;;;1.90;1.10;;;15.70;28.10;;;;;;5061446;28;20224;-44
2022/03/27 11:41:42;;;;;;;1.27;1.17;;;15.80;27.90;;;;;;5067726;28;20209;-47
2022/03/27 11:45:06;;;;;;;2.10;1.10;;;16.00;27.90;;;;;;5063078;28;20199;-46
2022/03/27 11:47:13;;;;;;;1.93;1.03;;;16.20;28.20;;;;;;5067635;28;20203;-47
2022/03/27 11:49:42;;;;;;;1.30;1.20;;;16.30;28.00;;;;;;5069495;28;20192;-46
2022/03/27 11:52:11;;;;;;;1.50;1.20;;;16.50;28.10;;;;;;5069381;28;20204;-47
2022/03/27 11:54:40;;;;;;;1.20;1.10;;;16.60;28.00;;;;;;5069146;28;20209;-48
2022/03/27 11:57:09;;;;;;;1.20;1.10;;;16.80;28.10;;;;;;5069306;28;20228;-50
2022/03/27 11:59:46;;;;;;;2.10;1.47;;;16.90;28.10;;;;;;5069947;28;20197;-47
2022/03/27 12:02:16;;;;;;;2.37;1.30;;;17.00;28.10;;;;;;5067664;28;20216;-46
2022/03/27 12:04:54;;;;;;;5.50;1.97;;;17.00;27.90;;;;;;5067944;28;20708;-49
2022/03/27 12:07:22;;;;;;;1.77;1.20;;;16.90;27.90;;;;;;5068972;28;20192;-51
2022/03/27 12:09:59;;;;;;;3.37;1.40;;;16.80;28.10;;;;;;5068073;28;20665;-48
2022/03/27 12:12:32;;;;;;;1.90;1.40;;;16.80;28.10;;;;;;5067661;28;20192;-47
2022/03/27 12:15:02;;;;;;;1.50;1.40;;;16.80;28.30;;;;;;5058381;28;20241;-45
2022/03/27 12:17:31;;;;;;;1.40;1.20;;;16.80;28.30;;;;;;5063246;28;20205;-47
2022/03/27 12:20:00;;;;;;;2.60;1.27;;;16.80;28.40;;;;;;5069556;28;20288;-57
2022/03/27 12:22:38;;;;;;;2.73;1.40;;;16.80;28.80;;;;;;5069185;28;20206;-58
2022/03/27 12:25:10;;;;;;;2.17;1.27;;;16.70;28.70;;;;;;5069965;28;20193;-57
2022/03/27 12:30:34;;;;;;;1.67;1.03;;;16.50;28.80;;;;;;5066028;28;21144;-58
2022/03/27 12:33:01;;;;;;;1.20;1.10;;;16.50;28.80;;;;;;5068291;28;20201;-57
2022/03/27 12:35:30;;;;;;;3.07;1.27;;;16.50;28.80;;;;;;5059463;28;20577;-57
2022/03/27 12:37:57;;;;;;;2.27;1.70;;;16.50;29.00;;;;;;5068210;28;20227;-56
2022/03/27 12:40:25;;;;;;;1.80;1.10;;;16.40;29.00;;;;;;5063524;28;20578;-57
2022/03/27 12:42:54;;;;;;;1.00;1.00;;;16.30;29.10;;;;;;5062801;28;20201;-56
2022/03/27 12:45:32;;;;;;;1.77;1.20;;;16.30;29.10;;;;;;5065548;28;20185;-58
2022/03/27 12:48:01;;;;;;;2.27;1.10;;;16.20;29.20;;;;;;5067436;28;20291;-58
2022/03/27 12:50:34;;;;;;;1.90;1.30;;;16.20;29.20;;;;;;5065726;28;20550;-55
2022/03/27 12:53:03;;;;;;;3.87;1.40;;;16.10;29.20;;;;;;5054432;28;20192;-56
2022/03/27 12:55:42;;;;;;;1.93;1.30;;;16.10;29.40;;;;;;5072954;28;20193;-58
2022/03/27 12:58:12;;;;;;;1.70;1.23;;;16.00;29.50;;;;;;5069124;28;20189;-58
2022/03/27 13:00:41;;;;;;;2.00;1.37;;;15.80;29.50;;;;;;5066945;28;20273;-58
2022/03/27 13:03:17;;;;;;;2.77;1.73;;;15.70;29.60;;;;;;5084825;28;20193;-59
2022/03/27 13:05:46;;;;;;;1.40;1.30;;;15.60;29.60;;;;;;5070415;28;20201;-57
2022/03/27 13:08:14;;;;;;;1.90;1.43;;;15.60;29.70;;;;;;5067217;28;20229;-57
2022/03/27 13:10:41;;;;;;;1.47;1.27;;;15.70;29.80;;;;;;5068328;28;20212;-58
2022/03/27 13:13:15;;;;;;;2.47;1.40;;;15.70;29.70;;;;;;5069074;28;20207;-58